Terminal Aerodrome Forecast
Issued by NWS

Home | Current Version | Previous Version | Text Only | Print | Product List | Glossary On
Versions: 1 2 3 4 5 6 7 8 9 10 11 12 13 14 15 16 17 18 19 20 21 22 23 24 25 26 27 28 29 30 31 32 33 34
714
FTUS46 KLOX 272330
TAFLAX
TAF
KLAX 272330Z 2800/2906 26013KT P6SM SCT150
     FM280400 25006KT P6SM SCT006
     FM281000 VRB03KT P6SM BKN006
     FM281200 13004KT 4SM BR OVC005
     FM281600 23005KT 6SM BR SCT008
     FM281900 26012KT P6SM FEW010 SCT180
     FM290400 25006KT P6SM SCT007=

USA.gov is the U.S. government's official web portal to all federal, state and local government web resources and services.